Time;durP1;ratioP1;P1;durP2;ratioP2;P2;SDS_P1;SDS_P2;PMS_P1;PMS_P2;Temp;Humidity;BMP_temperature;BMP_pressure;BME280_temperature;BME280_humidity;BME280_pressure;Samples;Min_cycle;Max_cycle;Signal;HPM_P1;HPM_P2
2021/06/04 00:02:21;;;;;;;10.10;4.37;;;;;;;17.55;62.09;101254.09;4445613;32;20049;-76
2021/06/04 00:04:47;;;;;;;8.25;3.22;;;;;;;17.55;62.10;101246.31;4439930;32;20054;-75
2021/06/04 00:07:13;;;;;;;10.20;2.90;;;;;;;17.46;61.79;101249.16;4438329;32;20064;-75
2021/06/04 00:09:39;;;;;;;7.93;3.20;;;;;;;17.44;61.11;101228.16;4446902;32;20112;-74
2021/06/04 00:12:05;;;;;;;7.57;2.92;;;;;;;17.42;61.13;101242.81;4440920;32;20052;-75
2021/06/04 00:14:36;;;;;;;9.95;3.37;;;;;;;17.42;60.54;101239.97;4441471;32;20045;-75
2021/06/04 00:17:14;;;;;;;6.55;2.92;;;;;;;17.42;60.82;101237.13;4438759;32;20054;-75
2021/06/04 00:19:41;;;;;;;4.25;2.58;;;;;;;17.38;60.88;101235.69;4440838;32;20063;-77
2021/06/04 00:22:11;;;;;;;10.25;3.08;;;;;;;17.30;60.83;101240.91;4437204;32;20415;-77
2021/06/04 00:24:40;;;;;;;9.23;3.00;;;;;;;17.29;61.05;101249.91;4429159;32;20053;-77
2021/06/04 00:27:08;;;;;;;7.53;3.08;;;;;;;17.25;61.48;101243.59;4427735;32;20053;-77
2021/06/04 00:29:34;;;;;;;10.48;3.65;;;;;;;17.18;61.69;101244.69;4428692;32;20034;-77
2021/06/04 00:32:00;;;;;;;8.68;3.05;;;;;;;17.09;61.72;101250.34;4428871;32;20063;-75
2021/06/04 00:34:27;;;;;;;9.25;2.78;;;;;;;17.10;61.63;101248.31;4428729;32;20085;-77
2021/06/04 00:36:53;;;;;;;11.57;3.00;;;;;;;17.08;61.16;101247.97;4434705;32;20045;-77
2021/06/04 00:39:23;;;;;;;9.32;2.95;;;;;;;16.95;60.97;101253.00;4429303;32;20516;-77
2021/06/04 00:41:55;;;;;;;9.32;2.65;;;;;;;17.01;61.21;101254.78;4429912;32;20424;-75
2021/06/04 00:44:22;;;;;;;9.18;2.83;;;;;;;16.91;61.66;101249.53;4428707;32;20507;-77
2021/06/04 00:46:48;;;;;;;10.45;3.05;;;;;;;16.85;61.95;101255.06;4429443;32;20092;-77
2021/06/04 00:49:14;;;;;;;11.02;2.67;;;;;;;16.80;62.39;101247.13;4428871;32;20145;-77
2021/06/04 00:54:23;;;;;;;7.65;2.92;;;;;;;17.24;61.06;101259.06;4443571;31;708860;-75
2021/06/04 00:56:49;;;;;;;11.68;2.85;;;;;;;17.24;61.06;101259.06;4445152;32;20075;-77
2021/06/04 00:59:24;;;;;;;5.35;2.58;;;;;;;16.84;61.76;101252.69;4443819;32;20072;-77
2021/06/04 01:01:51;;;;;;;7.78;2.53;;;;;;;16.78;61.78;101249.66;4445903;32;20492;-75
2021/06/04 01:04:19;;;;;;;10.00;2.40;;;;;;;16.77;61.03;101255.81;4426113;32;20080;-75
2021/06/04 01:09:51;;;;;;;8.18;2.20;;;;;;;17.16;59.66;101261.44;4448950;31;674807;-78
2021/06/04 01:15:08;;;;;;;10.93;2.05;;;;;;;16.97;60.13;101259.81;4460012;31;666926;-75
2021/06/04 01:20:51;;;;;;;10.43;2.03;;;;;;;16.80;60.63;101277.59;4446657;31;679979;-75
2021/06/04 01:26:20;;;;;;;9.57;1.80;;;;;;;16.74;60.28;101280.28;4440987;31;668075;-76
2021/06/04 01:28:50;;;;;;;11.07;1.92;;;;;;;16.74;60.28;101280.28;4453119;32;20135;-76
2021/06/04 01:33:59;;;;;;;9.43;2.12;;;;;;;16.73;60.27;101286.44;4440477;31;677098;-77
2021/06/04 01:36:30;;;;;;;7.53;2.00;;;;;;;16.73;60.27;101286.44;4445402;32;20068;-74
2021/06/04 01:39:05;;;;;;;7.75;2.05;;;;;;;16.27;61.10;101285.41;4456137;32;20452;-75
2021/06/04 01:41:32;;;;;;;6.97;1.80;;;;;;;16.23;61.13;101284.72;4455285;32;20071;-75
2021/06/04 01:44:05;;;;;;;6.80;2.12;;;;;;;16.18;61.37;101288.19;4453844;32;20045;-78
2021/06/04 01:46:35;;;;;;;5.97;2.08;;;;;;;16.18;61.27;101293.06;4450174;32;20045;-75
2021/06/04 01:49:08;;;;;;;9.52;2.30;;;;;;;16.15;61.31;101291.94;4454871;32;20128;-77
2021/06/04 01:51:43;;;;;;;10.30;2.15;;;;;;;16.20;60.72;101290.56;4446374;32;20050;-75
2021/06/04 01:54:21;;;;;;;7.65;1.75;;;;;;;16.18;60.61;101282.50;4441586;32;20413;-76
2021/06/04 01:56:53;;;;;;;8.77;1.87;;;;;;;16.08;61.00;101274.37;4438697;32;20053;-76
2021/06/04 01:59:26;;;;;;;6.85;2.10;;;;;;;16.07;60.27;101273.56;4444963;32;20038;-76
2021/06/04 02:01:53;;;;;;;9.52;2.30;;;;;;;16.05;60.14;101269.62;4442037;32;20075;-75
2021/06/04 02:04:27;;;;;;;13.52;2.00;;;;;;;16.09;59.25;101276.75;4439267;32;20104;-75
2021/06/04 02:06:53;;;;;;;8.88;1.90;;;;;;;16.02;59.42;101280.66;4437974;32;20080;-76
2021/06/04 02:09:21;;;;;;;9.45;1.83;;;;;;;15.99;59.25;101275.88;4440140;32;20105;-76
2021/06/04 02:11:47;;;;;;;7.50;1.67;;;;;;;15.96;59.00;101273.97;4440221;32;20041;-75
2021/06/04 02:14:18;;;;;;;16.70;1.90;;;;;;;15.97;58.24;101280.47;4430940;32;20115;-75
2021/06/04 02:17:16;;;;;;;9.88;2.12;;;;;;;15.94;58.31;101289.91;4435214;32;20057;-76
2021/06/04 02:22:34;;;;;;;6.95;1.52;;;;;;;16.28;57.22;101292.66;4449780;31;752182;-76
2021/06/04 02:27:50;;;;;;;9.25;1.90;;;;;;;15.85;58.20;101278.47;4448359;31;684111;-75
2021/06/04 02:35:32;;;;;;;8.65;1.27;;;;;;;16.20;56.48;101291.31;4443659;31;678145;-76
2021/06/04 02:38:21;;;;;;;6.35;1.55;;;;;;;15.69;57.45;101284.34;4452071;32;20206;-76
2021/06/04 02:40:55;;;;;;;4.87;1.33;;;;;;;15.60;57.66;101270.87;4456381;32;20576;-76
2021/06/04 02:43:27;;;;;;;7.20;1.35;;;;;;;15.55;58.07;101279.19;4445353;32;20063;-76
2021/06/04 02:45:59;;;;;;;12.57;1.60;;;;;;;15.55;57.85;101277.13;4456535;32;20041;-76
2021/06/04 02:48:27;;;;;;;11.07;1.80;;;;;;;15.54;58.16;101272.72;4454831;32;20045;-76
2021/06/04 02:51:18;;;;;;;8.15;1.87;;;;;;;15.56;58.14;101275.88;4448342;32;20104;-76
2021/06/04 02:53:51;;;;;;;5.43;1.35;;;;;;;15.59;57.96;101274.97;4456767;32;20049;-76
2021/06/04 02:58:59;;;;;;;7.40;1.70;;;;;;;15.84;57.41;101269.16;4424418;31;1376565;-76
2021/06/04 03:01:28;;;;;;;8.55;1.45;;;;;;;15.84;57.41;101269.16;4438292;32;20929;-78
2021/06/04 03:03:58;;;;;;;5.35;1.30;;;;;;;15.44;58.19;101273.09;4441290;32;20042;-76
2021/06/04 03:06:28;;;;;;;8.77;1.92;;;;;;;15.34;58.33;101277.84;4439455;32;20121;-76
2021/06/04 03:08:57;;;;;;;6.05;1.50;;;;;;;15.32;58.26;101271.06;4426247;32;20454;-76
2021/06/04 03:11:23;;;;;;;8.25;1.40;;;;;;;15.30;58.38;101265.06;4427966;32;20072;-76
2021/06/04 03:13:49;;;;;;;7.62;1.67;;;;;;;15.30;58.42;101265.84;4426255;32;20390;-76
2021/06/04 03:16:21;;;;;;;4.50;1.60;;;;;;;15.32;58.29;101268.22;4434967;32;20485;-76
2021/06/04 03:18:52;;;;;;;6.72;1.30;;;;;;;15.42;58.06;101258.56;4440091;32;20099;-76
2021/06/04 03:21:31;;;;;;;10.38;1.73;;;;;;;15.34;57.77;101265.75;4425608;32;20053;-76
2021/06/04 03:23:59;;;;;;;6.15;1.52;;;;;;;15.36;57.96;101271.72;4440194;32;20060;-76
2021/06/04 03:26:28;;;;;;;11.30;2.10;;;;;;;15.39;57.63;101273.69;4440042;32;20560;-76
2021/06/04 03:28:56;;;;;;;7.43;1.40;;;;;;;15.45;57.29;101272.66;4440025;32;20411;-76
2021/06/04 03:31:25;;;;;;;9.80;1.50;;;;;;;15.41;57.42;101263.44;4439532;32;20088;-76
2021/06/04 03:33:52;;;;;;;9.63;2.12;;;;;;;15.45;57.22;101263.34;4438542;32;20435;-77
2021/06/04 03:36:22;;;;;;;9.13;1.67;;;;;;;15.37;57.21;101262.03;4424626;32;20079;-76
2021/06/04 03:38:48;;;;;;;7.03;1.27;;;;;;;15.44;56.65;101259.69;4425490;32;20057;-76
2021/06/04 03:41:17;;;;;;;8.63;1.37;;;;;;;15.38;56.55;101266.44;4430435;32;20516;-77
2021/06/04 03:43:44;;;;;;;4.20;1.67;;;;;;;15.43;56.46;101263.78;4440475;32;20102;-76
2021/06/04 03:46:10;;;;;;;7.07;1.98;;;;;;;15.40;56.73;101270.38;4437443;32;20067;-76
2021/06/04 03:48:36;;;;;;;4.32;1.50;;;;;;;15.48;56.30;101271.72;4435095;32;20058;-76
2021/06/04 03:51:10;;;;;;;11.15;1.77;;;;;;;15.52;56.00;101278.06;4434448;32;20073;-76
2021/06/04 03:53:36;;;;;;;6.75;1.55;;;;;;;15.78;55.45;101282.34;4439714;32;20125;-76
2021/06/04 03:56:04;;;;;;;6.70;2.08;;;;;;;15.68;56.35;101282.78;4439544;32;20568;-76
2021/06/04 03:58:30;;;;;;;6.45;1.08;;;;;;;15.76;56.17;101293.41;4424082;32;20053;-76
2021/06/04 04:01:00;;;;;;;4.43;1.10;;;;;;;15.85;54.45;101292.66;4432803;32;20119;-76
2021/06/04 04:03:28;;;;;;;6.57;1.45;;;;;;;15.92;53.74;101292.41;4438854;32;20105;-76
2021/06/04 04:05:54;;;;;;;5.25;1.37;;;;;;;15.94;53.56;101296.38;4430620;32;20335;-76
2021/06/04 04:08:24;;;;;;;9.10;1.65;;;;;;;15.93;53.58;101299.69;4427287;32;20516;-76
2021/06/04 04:10:50;;;;;;;10.35;1.62;;;;;;;16.02;53.50;101298.94;4430131;32;20448;-76
2021/06/04 04:13:17;;;;;;;8.05;1.50;;;;;;;16.02;52.80;101297.69;4428320;32;20034;-76
2021/06/04 04:15:44;;;;;;;7.85;1.25;;;;;;;16.20;52.61;101305.53;4406752;32;20106;-76
2021/06/04 04:18:10;;;;;;;6.30;1.10;;;;;;;16.29;52.25;101304.81;4415905;32;20099;-76
2021/06/04 04:20:40;;;;;;;7.30;2.25;;;;;;;16.32;52.15;101312.41;4428592;32;20089;-76
2021/06/04 04:23:09;;;;;;;7.57;1.55;;;;;;;16.19;52.96;101303.94;4429624;32;20042;-76
2021/06/04 04:25:39;;;;;;;4.43;1.40;;;;;;;16.25;53.25;101306.97;4429916;32;20155;-76
2021/06/04 04:28:08;;;;;;;8.27;1.33;;;;;;;16.33;53.02;101305.44;4418603;32;20122;-76
2021/06/04 04:30:34;;;;;;;8.90;1.20;;;;;;;16.45;52.17;101313.12;4429211;32;20148;-76
2021/06/04 04:33:00;;;;;;;10.05;1.77;;;;;;;16.54;51.43;101311.13;4428603;32;20464;-76
2021/06/04 04:35:29;;;;;;;6.97;1.58;;;;;;;16.47;51.56;101319.94;4428898;32;20095;-76
2021/06/04 04:37:55;;;;;;;7.87;1.50;;;;;;;16.66;50.72;101313.06;4414299;32;20070;-76
2021/06/04 04:40:24;;;;;;;10.05;1.73;;;;;;;16.85;50.09;101311.91;4430137;32;20476;-76
2021/06/04 04:42:50;;;;;;;4.28;1.60;;;;;;;16.97;49.16;101316.66;4425912;32;20097;-76
2021/06/04 04:45:19;;;;;;;4.07;1.52;;;;;;;17.04;49.29;101313.56;4427917;32;20069;-76
2021/06/04 04:47:46;;;;;;;6.47;1.35;;;;;;;17.03;49.31;101320.47;4426654;32;20109;-76
2021/06/04 04:50:13;;;;;;;7.10;1.42;;;;;;;17.04;49.13;101329.81;4426058;32;20068;-76
2021/06/04 04:52:39;;;;;;;7.62;1.48;;;;;;;17.11;48.76;101324.63;4426020;32;20054;-76
2021/06/04 04:55:07;;;;;;;6.12;1.15;;;;;;;17.18;48.21;101337.78;4429379;32;20057;-76
2021/06/04 04:57:33;;;;;;;4.55;1.80;;;;;;;17.14;48.52;101339.94;4428221;32;20131;-76
2021/06/04 04:59:59;;;;;;;8.13;1.70;;;;;;;17.18;48.11;101332.84;4426200;32;20096;-77
2021/06/04 05:02:26;;;;;;;6.90;1.50;;;;;;;17.13;48.35;101332.69;4429173;32;20054;-77
2021/06/04 05:04:53;;;;;;;6.90;1.50;;;;;;;17.24;48.38;101338.72;4429666;32;20076;-77
2021/06/04 05:07:19;;;;;;;8.00;1.83;;;;;;;17.31;47.66;101349.81;4409040;32;20101;-77
2021/06/04 05:09:45;;;;;;;3.97;1.17;;;;;;;17.29;47.94;101341.75;4420985;32;20080;-77
2021/06/04 05:12:11;;;;;;;8.23;1.50;;;;;;;17.26;47.89;101336.19;4428499;32;20050;-76
2021/06/04 05:14:37;;;;;;;7.72;1.40;;;;;;;17.36;47.52;101338.59;4427885;32;20045;-77
2021/06/04 05:17:05;;;;;;;4.30;1.30;;;;;;;17.29;47.56;101346.63;4419424;32;20390;-77
2021/06/04 05:19:31;;;;;;;4.60;1.33;;;;;;;17.36;47.45;101347.12;4420424;32;20398;-77
2021/06/04 05:21:57;;;;;;;4.62;1.20;;;;;;;17.40;47.29;101356.31;4427669;32;20093;-76
2021/06/04 05:24:24;;;;;;;5.43;1.58;;;;;;;17.43;46.85;101349.69;4427945;32;20061;-76
2021/06/04 05:26:51;;;;;;;7.35;1.58;;;;;;;17.47;47.07;101350.34;4421572;32;20448;-76
2021/06/04 05:29:17;;;;;;;7.93;1.20;;;;;;;17.40;47.27;101353.47;4413814;32;21223;-76
2021/06/04 05:31:45;;;;;;;6.75;1.60;;;;;;;17.29;47.49;101358.81;4428294;32;20550;-76
2021/06/04 05:34:11;;;;;;;6.40;1.85;;;;;;;17.16;47.77;101355.31;4421365;32;20072;-77
2021/06/04 05:36:38;;;;;;;6.50;1.20;;;;;;;17.05;47.72;101363.47;4426289;32;20492;-76
2021/06/04 05:39:10;;;;;;;8.10;1.10;;;;;;;16.85;47.14;101357.41;4427582;32;20080;-76
2021/06/04 05:41:37;;;;;;;7.03;1.90;;;;;;;16.75;47.10;101372.81;4427962;32;20612;-76
2021/06/04 05:44:03;;;;;;;6.78;1.73;;;;;;;16.77;46.87;101360.97;4411811;32;20092;-76
2021/06/04 05:46:29;;;;;;;6.90;1.15;;;;;;;16.71;47.17;101363.63;4426125;32;20034;-76
2021/06/04 05:48:55;;;;;;;4.18;1.17;;;;;;;16.81;46.80;101373.00;4426978;32;20411;-76
2021/06/04 05:51:27;;;;;;;9.98;1.55;;;;;;;16.71;46.44;101375.00;4423027;32;20180;-76
2021/06/04 05:53:53;;;;;;;3.55;1.17;;;;;;;16.83;46.58;101381.84;4424118;32;20088;-76
2021/06/04 05:56:21;;;;;;;5.07;1.00;;;;;;;16.90;46.69;101382.37;4426414;32;20045;-76
2021/06/04 05:58:47;;;;;;;9.65;1.30;;;;;;;17.08;46.08;101376.75;4413420;32;20073;-76
2021/06/04 06:01:19;;;;;;;3.00;1.27;;;;;;;17.18;45.30;101386.13;4427835;32;20457;-76
2021/06/04 06:03:46;;;;;;;4.95;1.37;;;;;;;17.27;44.30;101392.63;4428199;32;20052;-76
2021/06/04 06:06:13;;;;;;;5.78;1.40;;;;;;;17.21;44.36;101391.66;4425260;32;20080;-76
2021/06/04 06:08:41;;;;;;;4.97;0.90;;;;;;;17.16;44.18;101397.16;4411139;32;20066;-76
2021/06/04 06:11:09;;;;;;;4.87;0.70;;;;;;;17.23;44.16;101400.53;4415762;32;20092;-76
2021/06/04 06:13:34;;;;;;;4.95;1.08;;;;;;;17.20;44.37;101398.63;4427259;32;20049;-76
2021/06/04 06:16:01;;;;;;;3.30;1.02;;;;;;;17.17;44.54;101405.22;4428002;32;20068;-76
2021/06/04 06:18:27;;;;;;;5.00;1.00;;;;;;;17.22;44.35;101418.84;4419961;32;20438;-76
2021/06/04 06:20:54;;;;;;;5.93;1.02;;;;;;;17.34;43.22;101415.09;4415720;32;20068;-76
2021/06/04 06:23:25;;;;;;;4.97;1.23;;;;;;;17.33;43.62;101416.34;4419945;32;20071;-76
2021/06/04 06:25:55;;;;;;;6.03;0.98;;;;;;;17.49;43.39;101423.87;4428187;32;20374;-77
2021/06/04 06:28:25;;;;;;;5.20;0.88;;;;;;;17.66;42.22;101425.19;4425528;32;20064;-76
2021/06/04 06:30:52;;;;;;;2.40;0.70;;;;;;;17.84;42.00;101423.16;4416536;32;20046;-76
2021/06/04 06:33:18;;;;;;;4.20;0.98;;;;;;;17.96;40.98;101435.69;4410324;32;20095;-77
2021/06/04 06:35:48;;;;;;;1.58;0.60;;;;;;;18.11;40.03;101433.00;4412146;32;20437;-76
2021/06/04 06:38:16;;;;;;;7.50;1.10;;;;;;;18.20;39.64;101419.56;4424121;32;20139;-77
2021/06/04 06:40:43;;;;;;;5.65;0.90;;;;;;;18.09;40.01;101430.63;4426509;32;20050;-77
2021/06/04 06:43:09;;;;;;;9.00;1.60;;;;;;;18.28;39.87;101426.50;4414617;32;20460;-77
2021/06/04 06:45:36;;;;;;;4.80;1.08;;;;;;;18.32;39.92;101423.50;4424927;32;20046;-76
2021/06/04 06:48:02;;;;;;;3.70;0.90;;;;;;;18.52;39.63;101430.31;4418927;32;20057;-76
2021/06/04 06:50:29;;;;;;;5.55;0.82;;;;;;;18.64;39.34;101437.13;4425084;32;20084;-77
2021/06/04 06:52:57;;;;;;;4.72;0.85;;;;;;;18.84;38.86;101445.97;4419224;32;20411;-77
2021/06/04 06:55:23;;;;;;;1.90;0.70;;;;;;;18.91;38.81;101448.47;4424103;32;20053;-77
2021/06/04 06:57:49;;;;;;;4.60;1.05;;;;;;;19.09;38.67;101449.19;4425501;32;20107;-76
2021/06/04 07:00:22;;;;;;;5.93;0.98;;;;;;;19.14;38.22;101457.13;4427039;32;20373;-77
2021/06/04 07:02:47;;;;;;;6.25;0.80;;;;;;;19.33;37.91;101447.25;4425619;32;20056;-76
2021/06/04 07:05:14;;;;;;;7.10;1.05;;;;;;;19.45;38.29;101454.81;4423465;32;20411;-76
2021/06/04 07:07:40;;;;;;;7.87;0.93;;;;;;;19.70;38.42;101459.28;4420893;32;20366;-77
2021/06/04 07:10:08;;;;;;;3.83;1.10;;;;;;;19.87;37.64;101457.59;4424936;32;20375;-76
2021/06/04 07:12:34;;;;;;;3.92;0.98;;;;;;;20.00;37.50;101471.66;4426009;32;20824;-76
2021/06/04 07:15:00;;;;;;;4.47;0.95;;;;;;;19.97;36.96;101466.91;4426662;32;20038;-77
2021/06/04 07:17:28;;;;;;;6.25;1.17;;;;;;;20.38;36.35;101466.78;4422725;32;20068;-77
2021/06/04 07:19:54;;;;;;;6.18;0.80;;;;;;;20.55;35.77;101464.22;4421521;32;20119;-77
2021/06/04 07:22:20;;;;;;;4.55;0.77;;;;;;;20.57;34.97;101462.47;4421005;32;20351;-77
2021/06/04 07:24:47;;;;;;;3.37;0.82;;;;;;;20.73;34.54;101462.00;4424757;32;20541;-77
2021/06/04 07:27:13;;;;;;;2.78;1.10;;;;;;;20.96;34.37;101461.16;4420800;32;20526;-77
2021/06/04 07:29:38;;;;;;;3.45;0.80;;;;;;;21.09;34.21;101473.13;4427264;32;20034;-76
2021/06/04 07:32:05;;;;;;;2.47;0.70;;;;;;;20.95;34.39;101479.59;4423756;32;20049;-77
2021/06/04 07:34:31;;;;;;;5.00;0.65;;;;;;;21.06;34.35;101490.47;4425405;32;20102;-76
2021/06/04 07:36:59;;;;;;;5.78;0.98;;;;;;;21.01;34.10;101500.53;4401073;32;20081;-77
2021/06/04 07:39:30;;;;;;;2.37;0.80;;;;;;;21.29;33.75;101495.28;4424083;32;20054;-77
2021/06/04 07:41:59;;;;;;;4.55;1.00;;;;;;;21.43;33.66;101508.81;4425611;32;20073;-76
2021/06/04 07:44:25;;;;;;;7.10;0.70;;;;;;;21.64;33.35;101513.34;4428444;32;20072;-77
2021/06/04 07:46:53;;;;;;;7.45;1.25;;;;;;;21.75;33.10;101509.88;4426698;32;20049;-77
2021/06/04 07:49:20;;;;;;;2.83;1.00;;;;;;;21.66;32.86;101510.75;4429580;32;20465;-76
2021/06/04 07:51:49;;;;;;;2.65;0.80;;;;;;;21.60;32.80;101509.91;4421095;32;20418;-76
2021/06/04 07:54:16;;;;;;;2.62;0.85;;;;;;;21.73;33.01;101512.41;4430577;32;20045;-77
2021/06/04 07:56:43;;;;;;;4.00;1.08;;;;;;;21.81;32.80;101519.34;4425844;32;20057;-76
2021/06/04 07:59:09;;;;;;;9.48;1.62;;;;;;;21.75;32.54;101513.53;4423438;32;20137;-77
2021/06/04 08:01:36;;;;;;;3.78;1.27;;;;;;;21.80;32.48;101509.97;4429719;32;20137;-77
2021/06/04 08:04:02;;;;;;;5.90;1.10;;;;;;;21.70;32.89;101509.25;4422467;32;20037;-76
2021/06/04 08:06:29;;;;;;;5.57;1.30;;;;;;;21.75;33.16;101504.94;4424408;32;20086;-76
2021/06/04 08:08:56;;;;;;;2.45;0.88;;;;;;;21.62;33.06;101499.50;4424662;32;20045;-77
2021/06/04 08:11:27;;;;;;;4.40;0.80;;;;;;;21.63;33.26;101503.16;4429368;32;20049;-76
2021/06/04 08:13:56;;;;;;;6.25;1.00;;;;;;;21.78;33.02;101503.94;4428851;32;20075;-77
2021/06/04 08:16:22;;;;;;;4.47;1.10;;;;;;;21.86;32.47;101499.38;4428119;32;20112;-75
2021/06/04 08:18:48;;;;;;;4.20;1.05;;;;;;;21.99;32.06;101501.91;4426334;32;20026;-76
2021/06/04 08:21:23;;;;;;;4.47;1.12;;;;;;;21.85;32.46;101505.59;4429203;32;20087;-76
2021/06/04 08:23:49;;;;;;;3.55;0.95;;;;;;;21.64;32.77;101507.59;4429451;32;20053;-76
2021/06/04 08:26:20;;;;;;;8.40;1.52;;;;;;;21.84;32.49;101509.75;4426057;32;20068;-76
2021/06/04 08:28:46;;;;;;;3.28;0.90;;;;;;;21.90;32.19;101505.69;4428519;32;20103;-76
2021/06/04 08:31:14;;;;;;;10.38;1.23;;;;;;;21.85;31.97;101511.34;4430019;32;20049;-76
2021/06/04 08:33:42;;;;;;;6.20;1.10;;;;;;;22.08;31.77;101502.56;4427274;32;20122;-76
2021/06/04 08:36:13;;;;;;;4.95;1.23;;;;;;;22.35;31.29;101490.66;4429170;32;20058;-76
2021/06/04 08:38:41;;;;;;;5.30;0.93;;;;;;;22.57;30.95;101490.97;4428982;32;20558;-76
2021/06/04 08:41:47;;;;;;;4.43;1.30;;;;;;;22.90;30.31;101491.34;4428170;32;20068;-76
2021/06/04 08:47:17;;;;;;;5.30;1.65;;;;;;;24.13;28.55;101488.97;4452065;31;661814;-75
2021/06/04 08:50:23;;;;;;;4.55;1.48;;;;;;;24.13;28.55;101488.97;4456146;32;20385;-75
2021/06/04 08:53:17;;;;;;;5.67;1.70;;;;;;;23.92;28.52;101493.25;4438990;32;20071;-75
2021/06/04 08:56:05;;;;;;;3.12;1.10;;;;;;;24.26;28.25;101500.00;4449106;32;20622;-76
2021/06/04 08:58:56;;;;;;;4.35;0.70;;;;;;;24.40;28.12;101499.81;4442488;32;20122;-76
2021/06/04 09:06:41;;;;;;;5.68;0.88;;;;;;;25.41;26.83;101490.13;4435447;31;667561;-76
2021/06/04 09:09:30;;;;;;;4.95;0.90;;;;;;;25.41;26.64;101490.13;4441430;32;20077;-76
2021/06/04 09:12:00;;;;;;;4.20;0.75;;;;;;;25.38;26.49;101495.63;4442188;32;20083;-76
2021/06/04 09:14:27;;;;;;;1.83;0.90;;;;;;;25.52;26.43;101498.81;4450189;32;20024;-77
2021/06/04 09:22:14;;;;;;;2.80;1.17;;;;;;;26.94;24.92;101505.47;4442533;31;698174;-77
2021/06/04 09:24:42;;;;;;;4.30;0.80;;;;;;;26.94;24.92;101505.47;4458020;32;20075;-76
2021/06/04 09:27:28;;;;;;;3.67;1.12;;;;;;;26.54;25.43;101497.53;4448337;32;20091;-75
2021/06/04 09:30:15;;;;;;;7.22;0.90;;;;;;;26.84;24.77;101498.41;4452333;32;20071;-76
2021/06/04 09:32:42;;;;;;;3.78;1.02;;;;;;;27.20;24.26;101502.91;4448664;32;20040;-77
2021/06/04 09:37:51;;;;;;;2.35;0.70;;;;;;;28.74;23.04;101495.56;4448829;31;677931;-75
2021/06/04 09:40:26;;;;;;;3.78;1.30;;;;;;;28.74;23.04;101495.56;4457464;32;20656;-76
2021/06/04 09:43:16;;;;;;;4.70;1.35;;;;;;;28.55;22.83;101500.56;4463715;32;20084;-76
2021/06/04 09:45:53;;;;;;;4.87;1.25;;;;;;;28.88;22.41;101505.91;4457512;32;20065;-76
2021/06/04 09:59:47;;;;;;;5.93;1.30;;;;;;;29.84;21.76;101487.22;4448046;31;668972;-76
2021/06/04 10:02:34;;;;;;;4.65;1.08;;;;;;;29.84;21.76;101487.22;4440953;32;20049;-75
2021/06/04 10:05:24;;;;;;;3.15;1.30;;;;;;;29.57;21.59;101493.53;4433462;32;20103;-75
2021/06/04 10:08:27;;;;;;;4.35;1.10;;;;;;;28.96;22.16;101498.16;4440329;32;20573;-76
2021/06/04 10:11:17;;;;;;;7.32;1.27;;;;;;;29.13;21.58;101500.03;4439986;32;20386;-76
2021/06/04 10:19:37;;;;;;;5.07;1.30;;;;;;;30.28;20.94;101489.28;4455968;32;20079;-75
2021/06/04 10:24:46;;;;;;;5.72;1.02;;;;;;;32.12;19.03;101499.69;4448965;31;680994;-76
2021/06/04 10:27:18;;;;;;;5.85;1.08;;;;;;;32.12;19.03;101499.69;4447188;32;20103;-76
2021/06/04 10:30:08;;;;;;;3.42;0.82;;;;;;;32.42;18.67;101490.38;4442206;32;20053;-77
2021/06/04 10:32:46;;;;;;;3.80;1.08;;;;;;;32.82;18.37;101502.44;4441090;32;20335;-76
2021/06/04 10:35:20;;;;;;;5.70;1.10;;;;;;;32.36;18.47;101489.75;4447337;32;20108;-77
2021/06/04 10:41:00;;;;;;;6.07;1.70;;;;;;;31.74;19.66;101492.75;4425176;32;676238;-76
2021/06/04 10:52:01;;;;;;;6.97;1.65;;;;;;;34.11;17.86;101488.38;4442930;31;673805;-76
2021/06/04 11:11:07;;;;;;;9.65;1.92;;;;;;;31.99;20.31;101479.41;4432566;31;673045;-76
2021/06/04 11:13:51;;;;;;;5.87;2.10;;;;;;;31.99;20.31;101479.41;4425178;32;20403;-76
2021/06/04 11:16:45;;;;;;;6.03;1.90;;;;;;;30.61;21.58;101473.28;4443387;32;20101;-77
2021/06/04 11:19:35;;;;;;;7.70;1.70;;;;;;;30.64;22.12;101467.13;4438206;32;20073;-76
2021/06/04 11:22:06;;;;;;;11.43;2.45;;;;;;;30.60;21.88;101477.53;4435796;32;20533;-76
2021/06/04 11:27:18;;;;;;;7.93;1.75;;;;;;;30.16;23.10;101481.34;4450488;31;667579;-76
2021/06/04 11:29:44;;;;;;;5.37;1.52;;;;;;;30.19;22.59;101483.16;4460379;32;20519;-76
2021/06/04 11:35:06;;;;;;;5.60;1.77;;;;;;;30.13;23.63;101483.22;4433714;31;690458;-78
2021/06/04 11:38:11;;;;;;;7.20;2.03;;;;;;;30.13;23.63;101483.22;4452260;32;20107;-76
2021/06/04 11:40:43;;;;;;;8.43;2.70;;;;;;;29.57;24.06;101473.22;4445896;32;20413;-77
2021/06/04 11:43:26;;;;;;;7.82;2.40;;;;;;;30.37;23.33;101477.22;4454578;32;20109;-76
2021/06/04 11:49:12;;;;;;;6.07;1.85;;;;;;;30.98;22.49;101470.06;4445155;31;678789;-77
2021/06/04 11:51:50;;;;;;;9.05;2.65;;;;;;;31.96;21.50;101465.97;4447916;32;20052;-75
2021/06/04 11:59:52;;;;;;;12.37;2.42;;;;;;;33.09;20.58;101474.53;4450341;31;668884;-77
2021/06/04 12:16:33;;;;;;;7.55;2.60;;;;;;;31.34;22.37;101467.37;4448238;31;671658;-76
2021/06/04 12:19:03;;;;;;;8.40;2.25;;;;;;;31.34;22.37;101467.37;4454344;32;20116;-77
2021/06/04 12:29:52;;;;;;;7.37;2.28;;;;;;;31.34;22.70;101473.19;4434130;31;688451;-75
2021/06/04 12:35:39;;;;;;;7.82;2.47;;;;;;;32.24;21.78;101457.22;4433006;31;681468;-75
2021/06/04 12:41:05;;;;;;;12.65;2.20;;;;;;;33.27;21.21;101476.31;4433988;31;677003;-76
2021/06/04 12:43:34;;;;;;;7.62;1.98;;;;;;;33.27;21.21;101476.31;4439724;32;20075;-76
2021/06/04 12:48:41;;;;;;;6.22;2.53;;;;;;;32.97;21.23;101474.13;4456272;31;657864;-75
2021/06/04 12:53:48;;;;;;;9.23;2.25;;;;;;;33.05;21.34;101466.19;4439563;31;676560;-77
2021/06/04 13:01:52;;;;;;;7.97;3.10;;;;;;;31.70;22.73;101456.63;4432605;32;667849;-76
2021/06/04 13:04:24;;;;;;;6.97;2.33;;;;;;;31.47;22.92;101449.84;4441525;32;20109;-76
2021/06/04 13:06:53;;;;;;;5.78;2.45;;;;;;;31.63;22.93;101458.13;4450784;32;20540;-76
2021/06/04 13:12:21;;;;;;;6.57;1.90;;;;;;;32.39;21.93;101447.81;4442096;31;677976;-76
2021/06/04 13:14:50;;;;;;;4.37;2.20;;;;;;;32.39;21.93;101447.81;4448025;32;20045;-75
2021/06/04 13:17:27;;;;;;;5.32;2.25;;;;;;;32.35;21.70;101448.19;4449083;32;20091;-77
2021/06/04 13:23:05;;;;;;;10.57;3.00;;;;;;;34.38;19.85;101454.31;4436322;31;669255;-77
2021/06/04 13:25:31;;;;;;;4.93;2.50;;;;;;;34.38;19.85;101454.31;4453249;32;20041;-77
2021/06/04 13:28:12;;;;;;;10.57;2.67;;;;;;;34.22;19.82;101457.84;4453179;32;20494;-77
2021/06/04 13:30:43;;;;;;;8.43;2.67;;;;;;;33.70;20.38;101441.94;4456645;32;20523;-76
2021/06/04 13:33:15;;;;;;;9.90;2.65;;;;;;;33.51;20.35;101437.84;4445858;32;20033;-77
2021/06/04 13:35:45;;;;;;;7.90;2.90;;;;;;;34.85;19.37;101458.59;4455013;32;20479;-77
2021/06/04 13:38:25;;;;;;;8.68;2.30;;;;;;;36.96;17.22;101448.66;4456146;32;20565;-77
2021/06/04 13:41:02;;;;;;;6.15;2.15;;;;;;;39.04;15.75;101459.34;4455431;32;20101;-77
2021/06/04 13:43:39;;;;;;;10.60;2.28;;;;;;;39.20;15.33;101453.87;4445217;32;20053;-76
2021/06/04 13:46:11;;;;;;;10.63;2.40;;;;;;;38.85;15.84;101446.81;4451165;32;20150;-75
2021/06/04 13:48:36;;;;;;;11.68;2.60;;;;;;;39.66;14.98;101451.34;4450911;32;20109;-75
2021/06/04 13:51:11;;;;;;;11.85;2.85;;;;;;;39.29;15.37;101450.87;4440159;32;20508;-75
2021/06/04 14:01:55;;;;;;;6.25;2.30;;;;;;;39.86;15.02;101455.78;4441508;31;656632;-76
2021/06/04 14:04:48;;;;;;;10.15;3.35;;;;;;;39.86;15.02;101455.78;4451832;32;20181;-75
2021/06/04 14:07:36;;;;;;;9.27;2.70;;;;;;;39.66;15.24;101446.25;4440830;32;20465;-75
2021/06/04 14:13:04;;;;;;;6.75;2.47;;;;;;;41.32;14.05;101459.16;4436739;31;673766;-76
2021/06/04 14:15:54;;;;;;;5.95;2.30;;;;;;;41.32;14.05;101459.16;4451221;32;20049;-76
2021/06/04 14:34:46;;;;;;;10.68;2.70;;;;;;;39.36;15.24;101460.94;4449835;31;668778;-76
2021/06/04 14:37:30;;;;;;;6.03;2.85;;;;;;;39.36;15.24;101460.94;4450037;32;20100;-76
2021/06/04 14:39:57;;;;;;;7.75;2.15;;;;;;;38.89;15.32;101447.88;4454031;32;20789;-76
2021/06/04 14:42:24;;;;;;;7.85;2.80;;;;;;;38.28;15.79;101446.84;4442096;32;20037;-76
2021/06/04 14:44:51;;;;;;;6.22;2.30;;;;;;;37.33;16.52;101448.09;4440970;32;20112;-76